createdAt,value
2019-03-13T00:00:54.657Z,48.10
2019-03-13T00:03:59.607Z,48.20
2019-03-13T00:07:04.911Z,48.60
2019-03-13T00:10:10.777Z,48.80
2019-03-13T00:13:15.822Z,48.60
2019-03-13T00:16:22.112Z,48.40
2019-03-13T00:19:27.077Z,48.30
2019-03-13T00:22:32.153Z,49.00
2019-03-13T00:25:37.247Z,48.40
2019-03-13T00:28:42.240Z,48.20
2019-03-13T00:31:47.174Z,48.20
2019-03-13T00:34:52.228Z,48.40
2019-03-13T00:37:57.329Z,48.40
2019-03-13T00:41:02.300Z,49.70
2019-03-13T00:44:07.399Z,50.50
2019-03-13T00:47:12.335Z,50.10
2019-03-13T00:50:24.458Z,50.10
2019-03-13T00:53:29.581Z,49.90
2019-03-13T00:56:34.305Z,50.30
2019-03-13T00:59:39.033Z,49.50
2019-03-13T01:02:45.208Z,49.70
2019-03-13T01:06:07.497Z,49.70
2019-03-13T01:09:12.518Z,49.70
2019-03-13T01:12:17.549Z,49.90
2019-03-13T01:15:22.531Z,50.00
2019-03-13T01:18:27.475Z,49.90
2019-03-13T01:21:32.597Z,50.00
2019-03-13T01:24:37.807Z,50.20
2019-03-13T01:27:42.773Z,50.10
2019-03-13T01:30:56.745Z,50.40
2019-03-13T01:34:18.908Z,50.70
2019-03-13T01:37:24.206Z,50.60
2019-03-13T01:40:29.113Z,50.80
2019-03-13T01:43:34.332Z,50.80
2019-03-13T01:46:39.596Z,51.00
2019-03-13T01:49:44.574Z,51.30
2019-03-13T01:52:49.668Z,51.40
2019-03-13T01:55:54.653Z,51.20
2019-03-13T01:58:59.815Z,51.40
2019-03-13T02:02:04.837Z,51.50
2019-03-13T02:05:09.861Z,51.70
2019-03-13T02:08:14.887Z,52.20
2019-03-13T02:11:19.824Z,52.40
2019-03-13T02:14:24.893Z,52.40
2019-03-13T02:17:29.838Z,52.30
2019-03-13T02:20:34.887Z,52.20
2019-03-13T02:23:39.775Z,52.60
2019-03-13T02:26:44.922Z,52.40
2019-03-13T02:29:50.169Z,52.30
2019-03-13T02:32:55.134Z,52.40
2019-03-13T02:36:00.026Z,52.20
2019-03-13T02:39:12.793Z,52.40
2019-03-13T02:42:17.679Z,52.60
2019-03-13T02:45:22.982Z,52.50
2019-03-13T02:48:27.951Z,52.60
2019-03-13T02:51:33.107Z,52.40
2019-03-13T02:54:38.099Z,52.50
2019-03-13T02:57:43.214Z,52.70
2019-03-13T03:00:55.489Z,52.70
2019-03-13T03:04:19.294Z,53.00
2019-03-13T03:07:26.856Z,53.10
2019-03-13T03:10:31.835Z,53.70
2019-03-13T03:13:55.572Z,53.60
2019-03-13T03:17:00.817Z,53.40
2019-03-13T03:20:07.545Z,53.60
2019-03-13T03:23:12.430Z,53.30
2019-03-13T03:26:17.500Z,53.10
2019-03-13T03:29:22.749Z,53.30
2019-03-13T03:32:27.844Z,53.40
2019-03-13T03:35:32.974Z,53.10
2019-03-13T03:38:38.143Z,53.10
2019-03-13T03:41:43.158Z,53.10
2019-03-13T03:44:48.317Z,52.80
2019-03-13T03:47:53.468Z,52.60
2019-03-13T03:50:58.750Z,52.20
2019-03-13T03:54:03.672Z,52.20
2019-03-13T03:57:08.792Z,52.40
2019-03-13T04:00:14.290Z,52.30
2019-03-13T04:03:19.384Z,52.50
2019-03-13T04:06:24.393Z,52.50
2019-03-13T04:09:29.469Z,52.60
2019-03-13T04:12:34.434Z,52.50
2019-03-13T04:15:39.576Z,52.40
2019-03-13T04:18:44.802Z,51.80
2019-03-13T04:21:49.835Z,51.80
2019-03-13T04:24:56.534Z,52.00
2019-03-13T04:28:01.734Z,52.30
2019-03-13T04:31:06.564Z,52.40
2019-03-13T04:34:11.610Z,51.80
2019-03-13T04:37:16.877Z,51.80
2019-03-13T04:40:21.825Z,52.10
2019-03-13T04:43:26.723Z,51.90
2019-03-13T04:46:31.663Z,51.90
2019-03-13T04:49:36.889Z,51.80
2019-03-13T04:52:42.159Z,52.00
2019-03-13T04:55:47.123Z,51.90
2019-03-13T04:58:52.221Z,52.10
2019-03-13T05:01:58.061Z,51.80
2019-03-13T05:05:03.054Z,51.80
2019-03-13T05:08:08.104Z,52.00
2019-03-13T05:11:12.948Z,51.70
2019-03-13T05:14:18.133Z,51.70
2019-03-13T05:17:23.308Z,51.70
2019-03-13T05:20:28.457Z,51.40
2019-03-13T05:23:33.383Z,51.50
2019-03-13T05:26:38.530Z,51.60
2019-03-13T05:29:49.674Z,51.50
2019-03-13T05:32:50.507Z,51.30
2019-03-13T05:35:55.616Z,51.50
2019-03-13T05:39:00.773Z,51.30
2019-03-13T05:42:05.690Z,51.10
2019-03-13T05:45:10.753Z,51.20
2019-03-13T05:48:15.952Z,51.20
2019-03-13T05:51:20.911Z,51.10
2019-03-13T05:54:26.834Z,50.90
2019-03-13T05:57:31.820Z,50.80
2019-03-13T06:00:36.961Z,50.50
2019-03-13T06:03:41.860Z,50.40
2019-03-13T06:06:47.047Z,51.00
2019-03-13T06:09:52.322Z,50.30
2019-03-13T06:12:58.922Z,50.40
2019-03-13T06:16:03.852Z,50.30
2019-03-13T06:19:08.862Z,49.90
2019-03-13T06:22:13.934Z,49.70
2019-03-13T06:25:19.156Z,49.50
2019-03-13T06:28:24.405Z,49.40
2019-03-13T06:31:29.402Z,49.20
2019-03-13T06:34:34.493Z,49.90
2019-03-13T06:37:39.488Z,49.10
2019-03-13T06:40:44.494Z,48.90
2019-03-13T06:43:49.478Z,48.70
2019-03-13T06:46:54.890Z,48.80
2019-03-13T06:49:59.929Z,48.20
2019-03-13T06:53:04.937Z,47.90
2019-03-13T06:56:09.960Z,47.70
2019-03-13T06:59:20.142Z,47.30
2019-03-13T07:02:43.944Z,47.40
2019-03-13T07:06:13.759Z,47.30
2019-03-13T07:09:39.547Z,47.20
2019-03-13T07:13:13.131Z,47.20
2019-03-13T07:16:24.777Z,47.00
2019-03-13T07:19:47.368Z,46.90
2019-03-13T07:23:11.150Z,46.50
2019-03-13T07:26:30.397Z,46.10
2019-03-13T07:29:54.280Z,46.00
2019-03-13T07:33:24.158Z,46.00
2019-03-13T07:36:39.445Z,45.70
2019-03-13T07:40:21.580Z,45.60
2019-03-13T07:43:53.729Z,45.20
2019-03-13T07:47:08.635Z,45.30
2019-03-13T07:50:21.207Z,44.90
2019-03-13T07:53:54.398Z,44.70
2019-03-13T07:57:18.345Z,44.40
2019-03-13T08:00:42.273Z,43.50
2019-03-13T08:04:06.328Z,43.60
2019-03-13T08:07:28.731Z,44.50
2019-03-13T08:10:45.576Z,45.10
2019-03-13T08:14:15.530Z,45.60
2019-03-13T08:17:25.971Z,46.10
2019-03-13T08:20:43.883Z,46.30
2019-03-13T08:23:57.612Z,46.90
2019-03-13T08:27:20.334Z,47.10
2019-03-13T08:30:42.669Z,46.50
2019-03-13T08:34:00.026Z,46.00
2019-03-13T08:37:41.799Z,45.60
2019-03-13T08:41:04.542Z,45.00
2019-03-13T08:44:31.461Z,44.30
2019-03-13T08:47:55.669Z,44.40
2019-03-13T08:51:18.721Z,44.70
2019-03-13T08:54:33.243Z,44.20
2019-03-13T08:57:52.187Z,44.20
2019-03-13T09:01:25.231Z,44.10
2019-03-13T09:04:46.608Z,43.80
2019-03-13T09:08:06.931Z,43.40
2019-03-13T09:11:29.716Z,43.40
2019-03-13T09:14:56.643Z,42.90
2019-03-13T09:18:23.535Z,42.90
2019-03-13T09:21:53.466Z,43.30
2019-03-13T09:25:17.565Z,43.00
2019-03-13T09:28:59.857Z,42.80
2019-03-13T09:32:29.644Z,42.70
2019-03-13T09:36:08.791Z,42.40
2019-03-13T09:39:32.632Z,41.80
2019-03-13T09:42:59.472Z,41.50
2019-03-13T09:46:29.241Z,41.20
2019-03-13T09:49:53.102Z,41.10
2019-03-13T09:53:16.781Z,42.90
2019-03-13T09:56:43.821Z,44.70
2019-03-13T10:00:06.191Z,50.30
2019-03-13T10:03:22.224Z,54.50
2019-03-13T10:06:39.808Z,56.40
2019-03-13T10:10:02.164Z,57.80
2019-03-13T10:13:24.441Z,58.70
2019-03-13T10:17:09.823Z,59.30
2019-03-13T10:20:38.690Z,59.60
2019-03-13T10:23:59.032Z,60.00
2019-03-13T10:27:29.507Z,61.00
2019-03-13T10:30:51.926Z,61.30
2019-03-13T10:34:18.645Z,62.00
2019-03-13T10:37:48.252Z,63.00
2019-03-13T10:41:12.127Z,63.80
2019-03-13T10:44:30.075Z,64.90
2019-03-13T10:47:52.659Z,65.00
2019-03-13T10:51:19.428Z,65.80
2019-03-13T10:54:52.193Z,65.60
2019-03-13T10:58:21.382Z,65.40
2019-03-13T11:01:48.976Z,65.10
2019-03-13T11:05:16.232Z,65.10
2019-03-13T11:08:41.897Z,64.50
2019-03-13T11:12:00.890Z,64.60
2019-03-13T11:15:28.247Z,64.60
2019-03-13T11:18:49.880Z,64.40
2019-03-13T11:22:10.629Z,65.10
2019-03-13T11:25:38.260Z,64.90
2019-03-13T11:29:02.001Z,64.40
2019-03-13T11:32:25.981Z,64.90
2019-03-13T11:35:49.935Z,65.30
2019-03-13T11:39:23.306Z,64.30
2019-03-13T11:42:50.227Z,63.80
2019-03-13T11:46:16.850Z,63.70
2019-03-13T11:49:52.996Z,62.70
2019-03-13T11:53:26.233Z,62.50
2019-03-13T11:56:49.018Z,61.80
2019-03-13T12:00:13.033Z,61.40
2019-03-13T12:03:34.445Z,62.20
2019-03-13T12:07:16.354Z,63.60
2019-03-13T12:10:43.254Z,63.70
2019-03-13T12:14:01.018Z,64.90
2019-03-13T12:17:27.888Z,66.00
2019-03-13T12:20:52.844Z,65.80
2019-03-13T12:24:31.972Z,66.50
2019-03-13T12:27:46.075Z,66.50
2019-03-13T12:31:19.106Z,66.50
2019-03-13T12:34:45.958Z,67.50
2019-03-13T12:38:00.990Z,67.90
2019-03-13T12:41:23.590Z,68.20
2019-03-13T12:44:46.369Z,68.80
2019-03-13T12:48:16.614Z,68.80
2019-03-13T12:51:34.530Z,69.70
2019-03-13T12:55:13.623Z,69.90
2019-03-13T12:58:40.651Z,70.00
2019-03-13T13:01:56.985Z,69.70
2019-03-13T13:05:36.222Z,70.00
2019-03-13T13:09:03.179Z,69.10
2019-03-13T13:12:27.134Z,69.10
2019-03-13T13:15:52.036Z,69.80
2019-03-13T13:19:01.717Z,71.60
2019-03-13T13:22:09.690Z,71.50
2019-03-13T13:25:14.745Z,72.00
2019-03-13T13:28:19.889Z,72.00
2019-03-13T13:31:24.975Z,72.00
2019-03-13T13:34:30.146Z,72.50
2019-03-13T13:37:35.029Z,72.70
2019-03-13T13:40:41.301Z,72.80
2019-03-13T13:43:46.870Z,73.20
2019-03-13T13:46:51.930Z,72.00
2019-03-13T13:50:00.069Z,71.70
2019-03-13T13:53:05.135Z,70.10
2019-03-13T13:56:10.206Z,68.90
2019-03-13T13:59:15.584Z,67.70
2019-03-13T14:02:20.459Z,68.40
2019-03-13T14:05:25.456Z,69.20
2019-03-13T14:08:30.514Z,70.10
2019-03-13T14:11:36.021Z,70.20
2019-03-13T14:14:41.024Z,69.80
2019-03-13T14:17:45.981Z,70.30
2019-03-13T14:20:51.024Z,70.00
2019-03-13T14:23:56.105Z,68.90
2019-03-13T14:27:13.516Z,68.60
2019-03-13T14:30:08.213Z,67.40
2019-03-13T14:33:13.514Z,67.60
2019-03-13T14:36:18.677Z,68.20
2019-03-13T14:39:23.556Z,68.00
2019-03-13T14:42:29.041Z,67.70
2019-03-13T14:45:34.221Z,68.80
2019-03-13T14:48:39.492Z,69.80
2019-03-13T14:51:44.548Z,68.20
2019-03-13T14:54:52.615Z,67.90
2019-03-13T14:57:57.710Z,67.40
2019-03-13T15:01:03.204Z,67.80
2019-03-13T15:04:08.300Z,68.70
2019-03-13T15:07:13.474Z,69.00
2019-03-13T15:10:19.052Z,68.20
2019-03-13T15:13:24.148Z,68.60
2019-03-13T15:16:29.150Z,69.10
2019-03-13T15:19:34.249Z,69.70
2019-03-13T15:22:39.328Z,68.90
2019-03-13T15:25:44.355Z,68.60
2019-03-13T15:28:49.462Z,68.30
2019-03-13T15:31:54.498Z,68.80
2019-03-13T15:34:59.586Z,68.80
2019-03-13T15:38:04.551Z,69.00
2019-03-13T15:41:09.536Z,68.90
2019-03-13T15:44:14.625Z,68.90
2019-03-13T15:47:21.637Z,69.70
2019-03-13T15:50:26.705Z,69.50
2019-03-13T15:53:32.264Z,69.70
2019-03-13T15:56:37.114Z,70.00
2019-03-13T15:59:42.210Z,69.00
2019-03-13T16:02:47.195Z,68.80
2019-03-13T16:05:52.340Z,68.90
2019-03-13T16:08:57.545Z,69.00
2019-03-13T16:12:02.602Z,69.20
2019-03-13T16:15:09.025Z,69.80
2019-03-13T16:18:15.991Z,69.20
2019-03-13T16:21:21.097Z,69.70
2019-03-13T16:24:26.197Z,70.70
2019-03-13T16:27:31.373Z,71.10
2019-03-13T16:30:39.183Z,71.80
2019-03-13T16:33:44.279Z,71.70
2019-03-13T16:36:49.311Z,72.10
2019-03-13T16:39:54.277Z,71.10
2019-03-13T16:42:59.603Z,71.00
2019-03-13T16:46:05.843Z,70.70
2019-03-13T16:49:11.000Z,70.40
2019-03-13T16:52:16.173Z,70.80
2019-03-13T16:55:27.773Z,70.80
2019-03-13T16:58:33.143Z,71.60
2019-03-13T17:01:38.448Z,71.50
2019-03-13T17:04:43.377Z,71.80
2019-03-13T17:07:50.122Z,71.90
2019-03-13T17:10:56.175Z,71.90
2019-03-13T17:14:01.418Z,72.80
2019-03-13T17:17:10.964Z,73.20
2019-03-13T17:20:26.563Z,73.50
2019-03-13T17:23:31.771Z,74.40
2019-03-13T17:26:36.775Z,74.70
2019-03-13T17:29:42.069Z,75.00
2019-03-13T17:32:47.295Z,75.20
2019-03-13T17:35:54.835Z,75.30
2019-03-13T17:39:01.030Z,75.90
2019-03-13T17:42:06.301Z,76.20
2019-03-13T17:45:13.602Z,76.50
2019-03-13T17:48:18.930Z,76.70
2019-03-13T17:51:25.017Z,77.40
2019-03-13T17:54:29.907Z,77.30
2019-03-13T17:57:35.151Z,78.00
2019-03-13T18:00:50.131Z,78.10
2019-03-13T18:03:55.139Z,78.40
2019-03-13T18:07:06.299Z,78.80
2019-03-13T18:10:14.200Z,78.80
2019-03-13T18:13:19.446Z,79.10
2019-03-13T18:16:24.576Z,79.60
2019-03-13T18:19:29.859Z,79.60
2019-03-13T18:22:35.309Z,79.50
2019-03-13T18:25:40.742Z,80.50
2019-03-13T18:28:47.142Z,80.40
2019-03-13T18:31:52.483Z,80.70
2019-03-13T18:34:57.542Z,80.10
2019-03-13T18:38:03.664Z,80.20
2019-03-13T18:41:09.404Z,80.10
2019-03-13T18:44:14.602Z,80.50
2019-03-13T18:47:21.452Z,80.80
2019-03-13T18:50:26.855Z,80.80
2019-03-13T18:53:31.953Z,80.70
2019-03-13T18:56:38.514Z,80.90
2019-03-13T18:59:43.765Z,81.00
2019-03-13T19:02:49.078Z,80.60
2019-03-13T19:05:54.846Z,80.50
2019-03-13T19:09:00.000Z,80.90
2019-03-13T19:12:05.201Z,80.80
2019-03-13T19:15:12.654Z,80.80
2019-03-13T19:18:17.481Z,80.90
2019-03-13T19:21:22.537Z,80.70
2019-03-13T19:24:27.695Z,80.20
2019-03-13T19:27:32.871Z,80.40
2019-03-13T19:30:38.261Z,80.30
2019-03-13T19:33:43.543Z,79.40
2019-03-13T19:36:51.119Z,78.80
2019-03-13T19:39:55.961Z,78.20
2019-03-13T19:43:01.101Z,78.60
2019-03-13T19:46:06.746Z,78.60
2019-03-13T19:49:12.308Z,78.40
2019-03-13T19:52:17.488Z,78.70
2019-03-13T19:55:22.606Z,78.90
2019-03-13T19:58:27.578Z,78.90
2019-03-13T20:01:38.745Z,78.80
2019-03-13T20:04:47.512Z,79.00
2019-03-13T20:07:52.887Z,78.80
2019-03-13T20:10:58.322Z,79.00
2019-03-13T20:14:04.345Z,79.10
2019-03-13T20:17:11.339Z,78.70
2019-03-13T20:20:17.474Z,78.50
2019-03-13T20:23:24.241Z,78.90
2019-03-13T20:26:32.241Z,78.80
2019-03-13T20:29:40.312Z,78.90
2019-03-13T20:32:45.562Z,78.90
2019-03-13T20:35:50.541Z,78.90
2019-03-13T20:38:55.510Z,79.00
2019-03-13T20:42:00.773Z,78.50
2019-03-13T20:45:06.737Z,78.00
2019-03-13T20:48:13.464Z,78.10
2019-03-13T20:51:18.892Z,78.80
2019-03-13T20:54:23.935Z,77.80
2019-03-13T20:57:28.915Z,77.60
2019-03-13T21:00:34.943Z,77.60
2019-03-13T21:03:40.202Z,77.90
2019-03-13T21:06:45.262Z,77.50
2019-03-13T21:09:50.387Z,78.20
2019-03-13T21:12:55.662Z,77.60
2019-03-13T21:16:00.713Z,77.60
2019-03-13T21:19:05.952Z,77.70
2019-03-13T21:22:11.161Z,77.70
2019-03-13T21:25:16.250Z,77.50
2019-03-13T21:28:21.352Z,77.40
2019-03-13T21:31:26.401Z,77.80
2019-03-13T21:34:31.614Z,78.10
2019-03-13T21:37:36.665Z,78.80
2019-03-13T21:40:41.716Z,77.70
2019-03-13T21:43:47.177Z,77.80
2019-03-13T21:46:52.356Z,77.70
2019-03-13T21:49:57.718Z,78.00
2019-03-13T21:53:02.582Z,78.10
2019-03-13T21:56:08.106Z,78.20
2019-03-13T21:59:14.346Z,78.10
2019-03-13T22:02:32.175Z,78.20
2019-03-13T22:05:27.811Z,78.40
2019-03-13T22:08:38.972Z,78.60
2019-03-13T22:11:43.931Z,78.80
2019-03-13T22:14:49.149Z,78.70
2019-03-13T22:17:54.324Z,78.90
2019-03-13T22:20:59.366Z,78.80
2019-03-13T22:24:05.122Z,78.80
2019-03-13T22:27:09.982Z,79.10
2019-03-13T22:30:17.445Z,79.30
2019-03-13T22:33:22.316Z,79.40
2019-03-13T22:36:27.502Z,79.50
2019-03-13T22:39:32.571Z,80.60
2019-03-13T22:42:37.604Z,81.40
2019-03-13T22:45:42.820Z,81.30
2019-03-13T22:48:57.602Z,82.00
2019-03-13T22:51:54.540Z,81.60
2019-03-13T22:54:59.632Z,81.80
2019-03-13T22:58:04.527Z,81.70
2019-03-13T23:01:13.802Z,81.60
2019-03-13T23:04:18.679Z,81.60
2019-03-13T23:07:23.809Z,81.60
2019-03-13T23:10:33.204Z,81.40
2019-03-13T23:13:38.628Z,81.90
2019-03-13T23:16:43.689Z,82.40
2019-03-13T23:19:48.905Z,82.60
2019-03-13T23:22:53.951Z,82.20
2019-03-13T23:25:59.191Z,82.40
2019-03-13T23:29:04.213Z,82.60
2019-03-13T23:32:09.450Z,82.70
2019-03-13T23:35:14.395Z,82.20
2019-03-13T23:38:19.369Z,82.10
2019-03-13T23:41:26.730Z,82.70
2019-03-13T23:44:31.885Z,82.90
2019-03-13T23:47:38.334Z,82.80
2019-03-13T23:50:43.893Z,82.70
2019-03-13T23:53:48.979Z,82.70
2019-03-13T23:56:53.930Z,82.70
